Terminal Aerodrome Forecast
Issued by NWS

Home | Current Version | Previous Version | Text Only | Print | Product List | Glossary On
Versions: 1 2 3 4 5 6 7 8 9 10 11 12 13 14
000
FTUS43 KSGF 310500
TAFJLN
TAF
KJLN 310521Z 3106/0106 13007KT P6SM OVC100
     FM311900 16010KT P6SM VCSH BKN070 OVC100 PROB30 3119/0101 6SM
      -SHRA
     FM010100 16010KT 6SM -SHRA OVC050=

USA.gov is the U.S. government's official web portal to all federal, state and local government web resources and services.